Time;durP1;ratioP1;P1;durP2;ratioP2;P2;SDS_P1;SDS_P2;PMS_P1;PMS_P2;Temp;Humidity;BMP_temperature;BMP_pressure;BME280_temperature;BME280_humidity;BME280_pressure;Samples;Min_cycle;Max_cycle;Signal;HPM_P1;HPM_P2
2022/11/20 00:01:17;;;;;;;2.85;1.80;;;;;;;;;;5042429;28;20033;-82
2022/11/20 00:03:42;;;;;;;5.03;1.98;;;;;;;;;;5041534;28;20041;-83
2022/11/20 00:06:10;;;;;;;3.08;1.83;;;;;;;;;;5042793;28;20025;-84
2022/11/20 00:08:36;;;;;;;4.10;2.00;;;;;;;;;;5042806;28;20037;-82
2022/11/20 00:11:10;;;;;;;2.33;1.60;;;;;;;;;;5042894;28;20044;-83
2022/11/20 00:13:36;;;;;;;4.50;1.80;;;;;;;;;;5023806;28;20041;-82
2022/11/20 00:16:04;;;;;;;2.90;1.65;;;;;;;;;;5042175;28;20109;-83
2022/11/20 00:18:30;;;;;;;3.13;1.50;;;;;;;;;;5041526;28;20497;-82
2022/11/20 00:21:14;;;;;;;3.00;1.63;;;;;;;;;;5042452;28;20100;-84
2022/11/20 00:23:39;;;;;;;;;;;;;;;;;;5043829;28;20044;-83
2022/11/20 00:26:11;;;;;;;4.32;1.40;;;;;;;;;;5042082;28;20301;-83
2022/11/20 00:28:37;;;;;;;3.60;1.55;;;;;;;;;;5043505;28;20037;-84
2022/11/20 00:31:08;;;;;;;2.17;1.10;;;;;;;;;;5024268;28;20094;-82
2022/11/20 00:33:34;;;;;;;1.67;1.10;;;;;;;;;;5042188;28;20072;-84
2022/11/20 00:36:05;;;;;;;2.83;1.35;;;;;;;;;;5041557;28;20041;-83
2022/11/20 00:38:31;;;;;;;2.47;1.20;;;;;;;;;;5043070;28;20038;-83
2022/11/20 00:41:01;;;;;;;2.53;1.27;;;;;;;;;;5043242;28;20091;-80
2022/11/20 00:43:27;;;;;;;1.98;1.13;;;;;;;;;;5043432;28;20032;-82
2022/11/20 00:46:01;;;;;;;2.08;1.15;;;;;;;;;;5041864;28;20652;-83
2022/11/20 00:48:27;;;;;;;1.98;1.08;;;;;;;;;;5041411;28;20040;-82
2022/11/20 00:50:53;;;;;;;2.10;1.20;;;;;;;;;;5042878;28;20025;-84
2022/11/20 00:53:19;;;;;;;1.70;1.10;;;;;;;;;;5041565;28;20053;-82
2022/11/20 00:55:57;;;;;;;3.28;1.27;;;;;;;;;;5042641;28;20148;-83
2022/11/20 00:58:24;;;;;;;2.95;1.10;;;;;;;;;;5042324;28;20044;-81
2022/11/20 01:00:50;;;;;;;4.65;1.30;;;;;;;;;;5040447;28;20506;-82
2022/11/20 01:03:17;;;;;;;2.05;1.10;;;;;;;;;;5042641;28;20041;-81
2022/11/20 01:05:42;;;;;;;1.38;1.10;;;;;;;;;;5040509;28;20040;-83
2022/11/20 01:08:08;;;;;;;1.35;0.93;;;;;;;;;;5043024;28;20025;-82
2022/11/20 01:10:34;;;;;;;1.98;1.05;;;;;;;;;;5039950;28;20033;-81
2022/11/20 01:15:43;;;;;;;2.55;1.20;;;;;;;;;;5040928;28;20034;-83
2022/11/20 01:18:09;;;;;;;2.50;1.35;;;;;;;;;;5040341;28;20056;-81
2022/11/20 01:20:35;;;;;;;3.30;0.90;;;;;;;;;;5040588;28;20136;-83
2022/11/20 01:23:02;;;;;;;3.53;1.30;;;;;;;;;;5040877;28;20037;-85
2022/11/20 01:25:28;;;;;;;1.65;1.10;;;;;;;;;;5040052;28;20406;-84
2022/11/20 01:27:54;;;;;;;1.95;0.90;;;;;;;;;;5040607;28;20030;-83
2022/11/20 01:30:19;;;;;;;1.88;0.90;;;;;;;;;;5041975;28;20449;-82
2022/11/20 01:32:44;;;;;;;1.70;1.00;;;;;;;;;;5024511;28;20037;-83
2022/11/20 01:35:10;;;;;;;1.48;1.10;;;;;;;;;;5039506;28;20052;-82
2022/11/20 01:37:35;;;;;;;2.22;1.20;;;;;;;;;;5040887;28;20489;-83
2022/11/20 01:40:01;;;;;;;2.17;1.20;;;;;;;;;;5041178;28;20102;-83
2022/11/20 01:45:48;;;;;;;2.03;1.10;;;;;;;;;;5042824;28;20450;-84
2022/11/20 01:48:14;;;;;;;2.13;1.10;;;;;;;;;;5044165;28;20041;-83
2022/11/20 01:50:41;;;;;;;1.15;1.00;;;;;;;;;;5029160;28;20041;-83
2022/11/20 01:53:11;;;;;;;2.88;1.00;;;;;;;;;;5045602;28;20033;-82
2022/11/20 01:55:43;;;;;;;1.77;1.10;;;;;;;;;;5026909;28;20072;-84
2022/11/20 01:58:09;;;;;;;4.53;1.20;;;;;;;;;;5044136;28;20037;-82
2022/11/20 02:00:35;;;;;;;1.95;1.10;;;;;;;;;;5027176;28;20387;-84
2022/11/20 02:03:05;;;;;;;2.10;1.00;;;;;;;;;;5044291;28;20036;-82
2022/11/20 02:05:39;;;;;;;2.88;1.10;;;;;;;;;;5044291;28;20029;-83
2022/11/20 02:08:06;;;;;;;1.92;1.00;;;;;;;;;;5045044;28;20033;-83
2022/11/20 02:10:32;;;;;;;3.38;1.10;;;;;;;;;;5045032;28;20037;-84
2022/11/20 02:15:43;;;;;;;3.08;1.00;;;;;;;;;;5043388;28;20025;-84
2022/11/20 02:18:11;;;;;;;3.85;1.20;;;;;;;;;;5043867;28;20060;-84
2022/11/20 02:20:38;;;;;;;1.50;1.10;;;;;;;;;;5044998;28;20095;-84
2022/11/20 02:23:03;;;;;;;2.58;1.17;;;;;;;;;;5044115;28;20503;-83
2022/11/20 02:25:31;;;;;;;1.25;1.08;;;;;;;;;;5044891;28;20052;-85
2022/11/20 02:27:56;;;;;;;2.25;1.10;;;;;;;;;;5043387;28;20043;-82
2022/11/20 02:30:22;;;;;;;1.63;1.05;;;;;;;;;;5044721;28;20033;-84
2022/11/20 02:32:47;;;;;;;1.77;1.20;;;;;;;;;;5045003;28;20034;-84
2022/11/20 02:35:18;;;;;;;3.25;1.30;;;;;;;;;;5042780;28;20108;-83
2022/11/20 02:37:47;;;;;;;2.17;1.35;;;;;;;;;;5044297;28;20033;-83
2022/11/20 02:40:12;;;;;;;2.72;1.45;;;;;;;;;;5043821;28;20044;-83
2022/11/20 02:42:38;;;;;;;3.40;1.48;;;;;;;;;;5045084;28;20056;-84
2022/11/20 02:45:05;;;;;;;1.95;1.40;;;;;;;;;;5043804;28;20456;-83
2022/11/20 02:47:31;;;;;;;3.85;1.60;;;;;;;;;;5046136;28;20033;-82
2022/11/20 02:49:57;;;;;;;2.72;1.40;;;;;;;;;;5044927;28;20048;-83
2022/11/20 02:52:22;;;;;;;2.40;1.58;;;;;;;;;;5045669;28;20129;-83
2022/11/20 02:54:48;;;;;;;2.75;1.70;;;;;;;;;;5042411;28;20091;-83
2022/11/20 02:57:13;;;;;;;1.65;1.42;;;;;;;;;;5044337;28;20072;-83
2022/11/20 02:59:39;;;;;;;2.95;1.70;;;;;;;;;;5045397;28;20029;-84
2022/11/20 03:02:04;;;;;;;2.35;1.70;;;;;;;;;;5043433;28;20022;-84
2022/11/20 03:04:30;;;;;;;2.70;1.52;;;;;;;;;;5044533;28;20034;-84
2022/11/20 03:06:56;;;;;;;3.30;1.60;;;;;;;;;;5043541;28;20116;-84
2022/11/20 03:09:21;;;;;;;2.20;1.50;;;;;;;;;;5043051;28;20038;-84
2022/11/20 03:11:47;;;;;;;1.75;1.40;;;;;;;;;;5042972;28;20128;-84
2022/11/20 03:14:13;;;;;;;1.95;1.40;;;;;;;;;;5040979;28;20037;-85
2022/11/20 03:16:38;;;;;;;2.30;1.60;;;;;;;;;;5046053;28;20038;-85
2022/11/20 03:19:04;;;;;;;3.22;1.70;;;;;;;;;;5047570;28;20065;-85
2022/11/20 03:21:29;;;;;;;3.10;1.65;;;;;;;;;;5043774;28;20025;-84
2022/11/20 03:23:55;;;;;;;2.20;1.40;;;;;;;;;;5046098;28;20061;-82
2022/11/20 03:26:24;;;;;;;3.30;1.60;;;;;;;;;;5046172;28;20037;-84
2022/11/20 03:28:55;;;;;;;2.55;1.40;;;;;;;;;;5046987;28;20041;-85
2022/11/20 03:31:23;;;;;;;2.22;1.30;;;;;;;;;;5047743;28;20049;-83
2022/11/20 03:33:49;;;;;;;1.85;1.15;;;;;;;;;;5047233;28;20033;-84
2022/11/20 03:36:16;;;;;;;1.73;1.23;;;;;;;;;;5046826;28;20099;-83
2022/11/20 03:38:42;;;;;;;1.33;1.10;;;;;;;;;;5047398;28;20069;-84
2022/11/20 03:41:13;;;;;;;1.92;1.20;;;;;;;;;;5046071;28;20025;-85
2022/11/20 03:43:39;;;;;;;1.80;1.20;;;;;;;;;;5045978;28;20036;-84
2022/11/20 03:46:05;;;;;;;1.40;1.10;;;;;;;;;;5046105;28;20029;-85
2022/11/20 03:48:31;;;;;;;1.48;1.10;;;;;;;;;;5047586;28;20482;-85
2022/11/20 03:51:11;;;;;;;1.83;1.27;;;;;;;;;;5046872;28;20045;-83
2022/11/20 03:53:37;;;;;;;1.83;1.30;;;;;;;;;;5046745;28;20033;-83
2022/11/20 03:56:03;;;;;;;2.55;1.10;;;;;;;;;;5045210;28;20025;-84
2022/11/20 03:58:28;;;;;;;1.83;1.20;;;;;;;;;;5045666;28;20034;-85
2022/11/20 04:00:54;;;;;;;1.10;1.00;;;;;;;;;;5047474;28;20049;-85
2022/11/20 04:03:19;;;;;;;1.92;1.15;;;;;;;;;;5045178;28;20072;-85
2022/11/20 04:05:44;;;;;;;1.45;1.00;;;;;;;;;;5044988;28;20079;-84
2022/11/20 04:08:10;;;;;;;2.03;1.30;;;;;;;;;;5045444;28;20053;-84
2022/11/20 04:10:35;;;;;;;2.20;1.25;;;;;;;;;;5045253;28;20044;-83
2022/11/20 04:13:01;;;;;;;2.97;1.42;;;;;;;;;;5047132;28;20120;-84
2022/11/20 04:15:26;;;;;;;1.58;1.30;;;;;;;;;;5043032;28;20039;-84
2022/11/20 04:17:53;;;;;;;2.35;1.40;;;;;;;;;;5046454;28;20042;-84
2022/11/20 04:20:19;;;;;;;3.20;1.65;;;;;;;;;;5046666;28;20026;-83
2022/11/20 04:22:44;;;;;;;2.45;1.40;;;;;;;;;;5046611;28;20039;-84
2022/11/20 04:25:10;;;;;;;2.67;1.58;;;;;;;;;;5044911;28;20097;-84
2022/11/20 04:27:36;;;;;;;3.47;1.40;;;;;;;;;;5045671;28;20486;-85
2022/11/20 04:30:01;;;;;;;2.30;1.50;;;;;;;;;;5046562;28;20068;-85
2022/11/20 04:32:27;;;;;;;1.52;1.30;;;;;;;;;;5045281;28;20071;-85
2022/11/20 04:34:52;;;;;;;2.05;1.40;;;;;;;;;;5045026;28;20037;-84
2022/11/20 04:37:18;;;;;;;1.75;1.30;;;;;;;;;;5045685;28;20130;-85
2022/11/20 04:39:44;;;;;;;2.92;1.50;;;;;;;;;;5045825;28;20097;-84
2022/11/20 04:45:08;;;;;;;2.40;1.50;;;;;;;;;;5033124;28;20105;-85
2022/11/20 04:47:33;;;;;;;1.67;1.25;;;;;;;;;;5044783;28;20379;-84
2022/11/20 04:49:59;;;;;;;2.60;1.50;;;;;;;;;;5046589;28;20029;-84
2022/11/20 04:52:24;;;;;;;2.92;1.77;;;;;;;;;;5044528;28;20042;-84
2022/11/20 04:54:52;;;;;;;2.97;1.70;;;;;;;;;;5045791;28;20037;-83
2022/11/20 04:57:18;;;;;;;8.95;4.15;;;;;;;;;;5044410;28;20101;-84
2022/11/20 04:59:43;;;;;;;6.43;2.97;;;;;;;;;;5044795;28;20033;-85
2022/11/20 05:02:10;;;;;;;6.07;3.53;;;;;;;;;;5045879;28;20041;-85
2022/11/20 05:04:35;;;;;;;4.18;2.53;;;;;;;;;;5043286;28;20029;-84
2022/11/20 05:07:01;;;;;;;4.18;2.50;;;;;;;;;;5045312;28;20099;-85
2022/11/20 05:09:26;;;;;;;2.55;1.80;;;;;;;;;;5044186;28;20037;-85
2022/11/20 05:11:52;;;;;;;2.60;1.67;;;;;;;;;;5045330;28;20052;-83
2022/11/20 05:14:17;;;;;;;3.65;1.50;;;;;;;;;;5041490;28;20104;-83
2022/11/20 05:16:42;;;;;;;2.30;1.30;;;;;;;;;;5043403;28;20037;-84
2022/11/20 05:19:08;;;;;;;2.58;1.15;;;;;;;;;;5045072;28;20043;-84
2022/11/20 05:21:33;;;;;;;1.70;1.00;;;;;;;;;;5044027;28;20064;-84
2022/11/20 05:23:59;;;;;;;3.42;1.10;;;;;;;;;;5026510;28;20040;-83
2022/11/20 05:26:24;;;;;;;2.75;1.20;;;;;;;;;;5044143;28;20083;-84
2022/11/20 05:28:51;;;;;;;2.60;1.20;;;;;;;;;;5043598;28;20094;-84
2022/11/20 05:31:19;;;;;;;1.88;1.10;;;;;;;;;;5042793;28;20025;-84
2022/11/20 05:33:45;;;;;;;2.60;1.27;;;;;;;;;;5009275;23;20558;-84
2022/11/20 05:36:12;;;;;;;2.35;1.30;;;;;;;;;;4977014;28;20042;-84
2022/11/20 05:38:38;;;;;;;2.63;1.38;;;;;;;;;;4975888;28;20449;-84
2022/11/20 05:41:17;;;;;;;2.50;1.35;;;;;;;;;;4977497;28;20045;-85
2022/11/20 05:43:44;;;;;;;3.53;1.27;;;;;;;;;;4978127;28;20050;-84
2022/11/20 05:46:13;;;;;;;3.75;1.40;;;;;;;;;;4959765;28;20041;-84
2022/11/20 05:48:39;;;;;;;2.10;1.27;;;;;;;;;;4976175;28;20031;-84
2022/11/20 05:51:06;;;;;;;1.63;1.40;;;;;;;;;;4977158;28;20033;-83
2022/11/20 05:53:33;;;;;;;2.30;1.50;;;;;;;;;;4977234;28;20045;-84
2022/11/20 05:56:03;;;;;;;1.80;1.30;;;;;;;;;;4976925;28;20031;-84
2022/11/20 05:58:30;;;;;;;1.48;1.20;;;;;;;;;;4977388;28;20058;-84
2022/11/20 06:01:11;;;;;;;3.03;1.40;;;;;;;;;;4977718;28;20054;-84
2022/11/20 06:03:37;;;;;;;1.70;1.20;;;;;;;;;;4977645;28;20066;-84
2022/11/20 06:06:04;;;;;;;2.60;1.50;;;;;;;;;;4959480;28;20071;-83
2022/11/20 06:08:30;;;;;;;3.65;1.50;;;;;;;;;;4960430;28;20042;-83
2022/11/20 06:10:55;;;;;;;1.90;1.30;;;;;;;;;;4977405;28;20415;-84
2022/11/20 06:13:22;;;;;;;3.10;1.40;;;;;;;;;;4976705;28;20064;-83
2022/11/20 06:15:51;;;;;;;2.65;1.35;;;;;;;;;;4974880;28;20038;-84
2022/11/20 06:18:16;;;;;;;4.30;1.60;;;;;;;;;;4977858;28;20041;-84
2022/11/20 06:20:42;;;;;;;1.65;1.40;;;;;;;;;;4977942;28;20050;-84
2022/11/20 06:23:07;;;;;;;2.60;1.63;;;;;;;;;;4977224;28;20113;-84
2022/11/20 06:25:33;;;;;;;1.58;1.35;;;;;;;;;;4976395;28;20090;-84
2022/11/20 06:27:58;;;;;;;3.30;1.40;;;;;;;;;;4959110;28;20034;-83
2022/11/20 06:30:23;;;;;;;2.47;1.30;;;;;;;;;;4960407;28;20030;-84
2022/11/20 06:32:49;;;;;;;2.83;1.50;;;;;;;;;;4980162;28;20046;-84
2022/11/20 06:35:14;;;;;;;3.95;1.50;;;;;;;;;;4980791;28;20037;-84
2022/11/20 06:37:40;;;;;;;2.13;1.35;;;;;;;;;;4963177;28;20228;-83
2022/11/20 06:40:06;;;;;;;1.83;1.40;;;;;;;;;;4980892;28;20042;-84
2022/11/20 06:42:32;;;;;;;3.72;1.33;;;;;;;;;;4980928;28;20054;-84
2022/11/20 06:44:57;;;;;;;1.55;1.27;;;;;;;;;;4980134;28;20411;-84
2022/11/20 06:47:23;;;;;;;1.70;1.30;;;;;;;;;;4980620;28;20035;-84
2022/11/20 06:49:48;;;;;;;2.75;1.63;;;;;;;;;;4978819;28;20038;-83
2022/11/20 06:52:14;;;;;;;2.17;1.45;;;;;;;;;;4980238;28;20042;-84
2022/11/20 06:54:39;;;;;;;2.80;1.23;;;;;;;;;;4979899;28;20031;-84
2022/11/20 06:57:04;;;;;;;1.58;1.17;;;;;;;;;;4980586;28;20492;-84
2022/11/20 06:59:30;;;;;;;1.98;1.50;;;;;;;;;;4980113;28;20050;-84
2022/11/20 07:01:55;;;;;;;2.22;1.58;;;;;;;;;;4962951;28;20038;-84
2022/11/20 07:04:21;;;;;;;2.35;1.60;;;;;;;;;;4961720;28;20063;-84
2022/11/20 07:06:46;;;;;;;2.70;1.60;;;;;;;;;;4962072;28;20031;-84
2022/11/20 07:09:12;;;;;;;4.43;1.40;;;;;;;;;;4962601;28;20057;-84
2022/11/20 07:11:37;;;;;;;2.20;1.30;;;;;;;;;;4979822;28;20050;-84
2022/11/20 07:14:03;;;;;;;2.08;1.30;;;;;;;;;;4992092;28;20406;-84
2022/11/20 07:16:28;;;;;;;2.30;1.30;;;;;;;;;;4979869;28;20042;-84
2022/11/20 07:18:53;;;;;;;2.22;1.45;;;;;;;;;;4997426;28;20035;-84
2022/11/20 07:21:19;;;;;;;2.20;1.38;;;;;;;;;;4996065;28;20090;-84
2022/11/20 07:23:44;;;;;;;1.85;1.20;;;;;;;;;;4979578;28;20053;-84
2022/11/20 07:26:10;;;;;;;2.05;1.40;;;;;;;;;;4961976;28;20234;-84
2022/11/20 07:28:37;;;;;;;3.65;1.83;;;;;;;;;;4980630;28;20035;-84
2022/11/20 07:31:03;;;;;;;2.38;1.50;;;;;;;;;;4981130;28;20022;-84
2022/11/20 07:33:28;;;;;;;1.92;1.50;;;;;;;;;;4978729;28;20455;-84
2022/11/20 07:35:54;;;;;;;2.33;1.55;;;;;;;;;;4976862;28;20077;-84
2022/11/20 07:38:19;;;;;;;2.95;1.65;;;;;;;;;;4960848;28;20484;-84
2022/11/20 07:40:45;;;;;;;3.35;1.70;;;;;;;;;;4978406;28;20039;-83
2022/11/20 07:43:10;;;;;;;2.13;1.40;;;;;;;;;;4978909;28;20049;-84
2022/11/20 07:45:36;;;;;;;2.65;1.55;;;;;;;;;;4960765;28;20077;-84
2022/11/20 07:48:02;;;;;;;2.75;1.45;;;;;;;;;;4986693;28;20072;-84
2022/11/20 07:50:27;;;;;;;2.60;1.52;;;;;;;;;;4981269;28;20030;-84
2022/11/20 07:53:00;;;;;;;2.05;1.50;;;;;;;;;;4980647;28;20038;-84
2022/11/20 07:55:25;;;;;;;2.95;1.50;;;;;;;;;;4962791;28;20031;-84
2022/11/20 07:57:56;;;;;;;3.80;1.80;;;;;;;;;;4963432;28;20415;-83
2022/11/20 08:00:21;;;;;;;3.65;1.50;;;;;;;;;;4991944;28;20041;-83
2022/11/20 08:02:46;;;;;;;2.67;1.60;;;;;;;;;;4999725;28;20030;-83
2022/11/20 08:05:12;;;;;;;2.92;1.73;;;;;;;;;;4981031;28;20403;-83
2022/11/20 08:07:39;;;;;;;2.15;1.60;;;;;;;;;;4997734;28;20476;-84
2022/11/20 08:10:05;;;;;;;2.53;1.55;;;;;;;;;;4999482;28;20045;-84
2022/11/20 08:15:15;;;;;;;2.97;1.60;;;;;;;;;;4979745;28;20023;-84
2022/11/20 08:17:40;;;;;;;2.08;1.05;;;;;;;;;;4981427;28;20511;-84
2022/11/20 08:20:06;;;;;;;3.00;1.25;;;;;;;;;;4998509;28;20577;-84
2022/11/20 08:22:32;;;;;;;2.92;1.30;;;;;;;;;;4981859;28;20041;-84
2022/11/20 08:24:57;;;;;;;1.08;0.93;;;;;;;;;;4997268;28;20514;-83
2022/11/20 08:27:23;;;;;;;1.90;1.10;;;;;;;;;;4980337;28;20069;-84
2022/11/20 08:29:48;;;;;;;1.83;0.98;;;;;;;;;;4980353;28;20034;-85
2022/11/20 08:32:14;;;;;;;1.48;1.00;;;;;;;;;;4997120;28;20618;-84
2022/11/20 08:34:39;;;;;;;1.88;0.90;;;;;;;;;;4997563;28;20038;-85
2022/11/20 08:37:05;;;;;;;1.40;0.60;;;;;;;;;;4997948;28;20404;-84
2022/11/20 08:39:30;;;;;;;1.10;0.80;;;;;;;;;;4980699;28;20045;-83
2022/11/20 08:41:57;;;;;;;0.70;0.60;;;;;;;;;;4980236;28;20503;-84
2022/11/20 08:44:22;;;;;;;2.63;0.90;;;;;;;;;;4998830;28;20065;-86
2022/11/20 08:46:48;;;;;;;1.10;0.90;;;;;;;;;;5001236;28;20050;-84
2022/11/20 08:49:14;;;;;;;1.52;0.98;;;;;;;;;;4980062;28;20560;-82
2022/11/20 08:51:40;;;;;;;0.68;0.68;;;;;;;;;;4994925;28;20383;-81
2022/11/20 08:54:06;;;;;;;1.52;0.93;;;;;;;;;;4994272;28;20049;-82
2022/11/20 08:56:32;;;;;;;0.98;0.70;;;;;;;;;;4996047;28;20045;-85
2022/11/20 08:58:59;;;;;;;1.25;0.70;;;;;;;;;;4996498;28;20042;-84
2022/11/20 09:01:25;;;;;;;1.08;0.70;;;;;;;;;;4996480;28;20124;-84
2022/11/20 09:03:50;;;;;;;1.75;0.95;;;;;;;;;;4995637;28;20050;-84
2022/11/20 09:06:16;;;;;;;1.05;0.88;;;;;;;;;;4994924;28;20118;-84
2022/11/20 09:08:42;;;;;;;2.28;1.50;;;;;;;;;;4995714;28;20034;-85
2022/11/20 09:11:08;;;;;;;1.00;0.70;;;;;;;;;;4996448;28;20157;-85
2022/11/20 09:13:35;;;;;;;1.23;1.08;;;;;;;;;;4994548;28;20687;-85
2022/11/20 09:16:05;;;;;;;0.98;0.77;;;;;;;;;;4995306;28;20058;-85
2022/11/20 09:18:35;;;;;;;1.40;1.00;;;;;;;;;;4996200;28;20069;-83
2022/11/20 09:21:04;;;;;;;2.38;1.05;;;;;;;;;;4995351;28;20053;-84
2022/11/20 09:23:35;;;;;;;1.20;1.00;;;;;;;;;;4995703;28;20026;-84
2022/11/20 09:26:12;;;;;;;1.50;0.90;;;;;;;;;;4995009;28;20415;-86
2022/11/20 09:28:38;;;;;;;0.60;0.55;;;;;;;;;;4996228;28;20093;-84
2022/11/20 09:31:08;;;;;;;1.00;0.88;;;;;;;;;;4995245;28;20050;-85
2022/11/20 09:33:35;;;;;;;2.25;1.50;;;;;;;;;;4994978;28;20635;-85
2022/11/20 09:36:00;;;;;;;0.90;0.70;;;;;;;;;;4976550;28;20033;-86
2022/11/20 09:38:26;;;;;;;0.65;0.60;;;;;;;;;;4994336;28;20034;-85
2022/11/20 09:40:57;;;;;;;1.83;1.20;;;;;;;;;;4995015;28;20046;-85
2022/11/20 09:43:40;;;;;;;2.08;1.00;;;;;;;;;;4993619;28;20037;-86
2022/11/20 09:46:20;;;;;;;1.23;0.88;;;;;;;;;;4994501;28;20074;-86
2022/11/20 09:48:52;;;;;;;1.45;0.60;;;;;;;;;;4994792;28;20096;-85
2022/11/20 09:51:42;;;;;;;0.60;0.60;;;;;;;;;;4994637;28;20046;-85
2022/11/20 09:54:21;;;;;;;1.15;0.45;;;;;;;;;;4994190;28;20042;-84
2022/11/20 09:56:53;;;;;;;0.77;0.40;;;;;;;;;;4994473;28;20479;-85
2022/11/20 09:59:39;;;;;;;0.88;0.60;;;;;;;;;;4994196;28;20042;-85
2022/11/20 10:02:23;;;;;;;1.23;0.70;;;;;;;;;;4977808;28;20058;-84
2022/11/20 10:05:03;;;;;;;3.40;1.80;;;;;;;;;;4978267;28;20035;-85
2022/11/20 10:07:41;;;;;;;2.60;1.60;;;;;;;;;;4998386;28;20030;-85
2022/11/20 10:10:16;;;;;;;1.90;1.10;;;;;;;;;;4981143;28;20050;-85
2022/11/20 10:12:48;;;;;;;1.80;1.08;;;;;;;;;;4980722;28;20034;-85
2022/11/20 10:15:35;;;;;;;0.60;0.60;;;;;;;;;;4998092;28;20038;-85
2022/11/20 10:18:39;;;;;;;0.65;0.40;;;;;;;;;;4998043;28;20041;-85
2022/11/20 10:21:35;;;;;;;1.08;0.50;;;;;;;;;;4998838;28;20427;-85
2022/11/20 10:24:23;;;;;;;0.55;0.40;;;;;;;;;;4998391;28;20034;-85
2022/11/20 10:26:54;;;;;;;0.45;0.40;;;;;;;;;;4998586;28;20041;-84
2022/11/20 10:29:32;;;;;;;0.30;0.30;;;;;;;;;;4998717;28;20043;-85
2022/11/20 10:32:02;;;;;;;1.10;0.40;;;;;;;;;;4998331;28;20027;-85
2022/11/20 10:35:12;;;;;;;0.40;0.38;;;;;;;;;;4981810;28;20080;-85
2022/11/20 10:37:44;;;;;;;0.45;0.40;;;;;;;;;;4957387;28;20058;-85
2022/11/20 10:40:28;;;;;;;0.35;0.30;;;;;;;;;;4991447;28;20050;-85
2022/11/20 10:43:01;;;;;;;3.20;1.95;;;;;;;;;;4998275;28;20034;-85
2022/11/20 10:45:26;;;;;;;0.75;0.60;;;;;;;;;;4981785;28;20399;-84
2022/11/20 10:48:07;;;;;;;0.68;0.50;;;;;;;;;;4965228;28;20030;-85
2022/11/20 10:50:35;;;;;;;2.10;1.13;;;;;;;;;;4999214;28;20065;-84
2022/11/20 10:53:16;;;;;;;2.53;1.40;;;;;;;;;;4997806;28;20022;-84
2022/11/20 10:55:58;;;;;;;3.78;1.90;;;;;;;;;;4997490;28;20031;-85
2022/11/20 10:58:49;;;;;;;2.63;1.20;;;;;;;;;;4997554;28;20038;-85
2022/11/20 11:01:17;;;;;;;2.00;1.05;;;;;;;;;;4996395;28;20096;-84
2022/11/20 11:03:43;;;;;;;2.58;1.33;;;;;;;;;;4995692;28;20037;-84
2022/11/20 11:06:24;;;;;;;3.47;2.05;;;;;;;;;;4996577;28;20061;-83
2022/11/20 11:08:52;;;;;;;1.95;1.00;;;;;;;;;;4963661;28;20471;-84
2022/11/20 11:11:28;;;;;;;5.68;1.95;;;;;;;;;;4996970;28;20129;-84
2022/11/20 11:14:04;;;;;;;2.75;1.50;;;;;;;;;;4966132;28;20125;-84
2022/11/20 11:16:30;;;;;;;8.43;3.33;;;;;;;;;;4977508;28;20042;-84
2022/11/20 11:19:14;;;;;;;2.75;1.35;;;;;;;;;;4978844;28;20130;-83
2022/11/20 11:21:47;;;;;;;6.50;2.83;;;;;;;;;;4978707;28;20054;-83
2022/11/20 11:24:22;;;;;;;6.75;2.60;;;;;;;;;;4963036;28;20050;-84
2022/11/20 11:26:57;;;;;;;2.25;1.20;;;;;;;;;;4979238;28;20495;-84
2022/11/20 11:29:23;;;;;;;1.10;0.70;;;;;;;;;;4979369;28;20043;-85
2022/11/20 11:31:49;;;;;;;1.25;0.90;;;;;;;;;;4978223;28;20031;-84
2022/11/20 11:34:16;;;;;;;1.70;1.00;;;;;;;;;;4957870;29;20066;-85
2022/11/20 11:36:55;;;;;;;0.40;0.40;;;;;;;;;;5026538;23;20042;-87
2022/11/20 11:39:21;;;;;;;0.70;0.50;;;;;;;;;;5025773;28;20054;-87
2022/11/20 11:41:48;;;;;;;0.98;0.63;;;;;;;;;;4995947;28;20022;-88
2022/11/20 11:47:09;;;;;;;6.38;3.63;;;;;;;;;;5009374;28;20030;-87
2022/11/20 11:49:35;;;;;;;5.60;3.38;;;;;;;;;;4998195;28;20525;-88
2022/11/20 11:52:24;;;;;;;2.88;1.23;;;;;;;;;;4994365;28;20038;-87
2022/11/20 11:54:55;;;;;;;1.25;0.70;;;;;;;;;;4994239;28;20073;-88
2022/11/20 11:57:40;;;;;;;0.75;0.50;;;;;;;;;;4996452;28;20030;-88
2022/11/20 12:00:15;;;;;;;0.85;0.50;;;;;;;;;;4994229;28;20105;-87
2022/11/20 12:02:44;;;;;;;0.73;0.40;;;;;;;;;;4995477;28;20085;-88
2022/11/20 12:05:26;;;;;;;0.50;0.35;;;;;;;;;;4999277;28;20030;-85
2022/11/20 12:07:55;;;;;;;0.32;0.32;;;;;;;;;;4996518;28;20030;-88
2022/11/20 12:10:26;;;;;;;1.63;0.30;;;;;;;;;;4996120;28;20121;-88
2022/11/20 12:13:01;;;;;;;0.50;0.43;;;;;;;;;;4977822;28;20110;-85
2022/11/20 12:15:33;;;;;;;0.43;0.40;;;;;;;;;;4991597;28;20128;-87
2022/11/20 12:17:59;;;;;;;1.17;0.90;;;;;;;;;;4993271;28;20037;-87
2022/11/20 12:20:43;;;;;;;0.30;0.30;;;;;;;;;;4993735;28;20030;-87
2022/11/20 12:23:36;;;;;;;4.43;0.50;;;;;;;;;;4994194;28;20050;-88
2022/11/20 12:26:13;;;;;;;2.95;2.10;;;;;;;;;;4994441;28;20403;-89
2022/11/20 12:29:06;;;;;;;0.80;0.80;;;;;;;;;;4994116;28;20110;-86
2022/11/20 12:31:44;;;;;;;1.63;0.60;;;;;;;;;;4992992;28;20130;-88
2022/11/20 12:34:09;;;;;;;2.50;1.60;;;;;;;;;;4992384;28;20057;-88
2022/11/20 12:36:41;;;;;;;0.55;0.47;;;;;;;;;;4993728;28;20034;-88
2022/11/20 12:39:09;;;;;;;0.32;0.30;;;;;;;;;;4995112;28;20049;-86
2022/11/20 12:45:35;;;;;;;1.00;0.55;;;;;;;;;;4993217;28;20081;-87
2022/11/20 12:48:24;;;;;;;1.63;0.80;;;;;;;;;;4995753;28;20030;-87
2022/11/20 12:50:55;;;;;;;0.30;0.30;;;;;;;;;;4993285;28;20030;-88
2022/11/20 12:53:27;;;;;;;0.40;0.20;;;;;;;;;;4993945;28;20032;-88
2022/11/20 12:56:39;;;;;;;0.40;0.40;;;;;;;;;;4991902;28;20046;-86
2022/11/20 12:59:28;;;;;;;1.13;0.40;;;;;;;;;;4992140;28;20048;-86
2022/11/20 13:02:02;;;;;;;7.10;2.60;;;;;;;;;;4995675;28;20565;-87
2022/11/20 13:04:58;;;;;;;7.13;2.90;;;;;;;;;;4993566;28;20507;-88
2022/11/20 13:07:26;;;;;;;3.83;1.75;;;;;;;;;;5000171;28;20037;-87
2022/11/20 13:09:53;;;;;;;0.82;0.63;;;;;;;;;;4993161;28;20080;-87
2022/11/20 13:12:46;;;;;;;0.32;0.32;;;;;;;;;;4992990;28;20121;-88
2022/11/20 13:15:37;;;;;;;0.52;0.40;;;;;;;;;;4992370;28;20042;-88
2022/11/20 13:18:05;;;;;;;1.52;0.95;;;;;;;;;;4993775;28;20400;-86
2022/11/20 13:20:32;;;;;;;0.30;0.30;;;;;;;;;;4994140;28;20038;-87
2022/11/20 13:22:58;;;;;;;0.38;0.30;;;;;;;;;;4994082;28;20094;-86
2022/11/20 13:25:32;;;;;;;0.43;0.40;;;;;;;;;;4992875;28;20086;-86
2022/11/20 13:28:04;;;;;;;0.70;0.40;;;;;;;;;;4992255;28;20034;-88
2022/11/20 13:30:31;;;;;;;0.60;0.40;;;;;;;;;;4992636;28;20491;-88
2022/11/20 13:33:00;;;;;;;0.63;0.63;;;;;;;;;;4992743;28;20029;-86
2022/11/20 13:36:16;;;;;;;0.60;0.60;;;;;;;;;;4991586;28;20035;-86
2022/11/20 13:38:48;;;;;;;0.45;0.40;;;;;;;;;;4966567;28;20050;-86
2022/11/20 13:41:35;;;;;;;0.67;0.60;;;;;;;;;;4999959;28;20081;-87
2022/11/20 13:44:13;;;;;;;0.47;0.40;;;;;;;;;;4998234;28;20351;-86
2022/11/20 13:46:45;;;;;;;0.80;0.50;;;;;;;;;;4982877;28;20044;-88
2022/11/20 13:49:18;;;;;;;1.42;0.60;;;;;;;;;;5001272;28;20562;-86
2022/11/20 13:51:47;;;;;;;1.00;0.50;;;;;;;;;;4999874;28;20034;-86
2022/11/20 13:54:27;;;;;;;0.65;0.50;;;;;;;;;;4999976;28;20479;-87
2022/11/20 13:56:53;;;;;;;0.40;0.40;;;;;;;;;;4999194;28;20403;-86
2022/11/20 13:59:31;;;;;;;1.13;0.60;;;;;;;;;;4999881;28;20510;-87
2022/11/20 14:01:56;;;;;;;0.38;0.30;;;;;;;;;;4999920;28;20117;-86
2022/11/20 14:04:42;;;;;;;0.70;0.47;;;;;;;;;;4999678;28;20066;-85
2022/11/20 14:07:09;;;;;;;0.32;0.32;;;;;;;;;;5005136;28;20078;-86
2022/11/20 14:09:34;;;;;;;0.60;0.40;;;;;;;;;;5000280;28;20117;-87
2022/11/20 14:12:02;;;;;;;1.00;0.47;;;;;;;;;;5005238;28;20053;-87
2022/11/20 14:14:30;;;;;;;1.13;0.47;;;;;;;;;;5000345;28;20042;-84
2022/11/20 14:17:27;;;;;;;0.52;0.47;;;;;;;;;;5004518;28;20024;-85
2022/11/20 14:19:54;;;;;;;0.50;0.50;;;;;;;;;;4997403;28;20090;-86
2022/11/20 14:22:23;;;;;;;0.55;0.30;;;;;;;;;;5002932;28;20038;-85
2022/11/20 14:25:00;;;;;;;0.50;0.50;;;;;;;;;;5003208;28;20042;-87
2022/11/20 14:27:25;;;;;;;0.88;0.60;;;;;;;;;;5003335;28;20048;-86
2022/11/20 14:29:51;;;;;;;0.93;0.60;;;;;;;;;;5002832;28;20532;-85
2022/11/20 14:32:26;;;;;;;0.70;0.70;;;;;;;;;;5002812;28;20065;-86
2022/11/20 14:34:51;;;;;;;0.80;0.70;;;;;;;;;;5001528;28;20057;-84
2022/11/20 14:37:21;;;;;;;1.33;0.70;;;;;;;;;;5000494;28;20491;-87
2022/11/20 14:39:55;;;;;;;0.60;0.60;;;;;;;;;;5001333;28;20495;-87
2022/11/20 14:42:26;;;;;;;0.95;0.80;;;;;;;;;;5000208;28;20034;-86
2022/11/20 14:44:55;;;;;;;1.90;1.00;;;;;;;;;;5002310;28;20045;-84
2022/11/20 14:47:24;;;;;;;0.93;0.80;;;;;;;;;;5014335;28;20403;-86
2022/11/20 14:49:52;;;;;;;1.45;0.82;;;;;;;;;;5002725;28;20019;-85
2022/11/20 14:52:21;;;;;;;9.40;3.92;;;;;;;;;;4998668;28;20070;-86
2022/11/20 14:54:54;;;;;;;37.92;14.45;;;;;;;;;;4997827;28;20034;-87
2022/11/20 14:57:22;;;;;;;;;;;;;;;;;;4998289;28;20030;-85
2022/11/20 14:59:48;;;;;;;21.20;13.73;;;;;;;;;;4978446;28;19925;-85
2022/11/20 15:02:13;;;;;;;3.10;1.35;;;;;;;;;;4978720;28;20034;-85
2022/11/20 15:04:59;;;;;;;4.57;3.17;;;;;;;;;;4981188;28;20488;-87
2022/11/20 15:07:37;;;;;;;8.13;5.43;;;;;;;;;;4978238;28;20035;-86
2022/11/20 15:10:09;;;;;;;5.57;3.00;;;;;;;;;;4977307;28;20167;-85
2022/11/20 15:12:38;;;;;;;5.43;3.45;;;;;;;;;;4978775;28;20046;-88
2022/11/20 15:15:05;;;;;;;4.35;2.83;;;;;;;;;;4974968;28;20023;-88
2022/11/20 15:17:31;;;;;;;2.97;1.90;;;;;;;;;;4976108;28;20031;-89
2022/11/20 15:19:58;;;;;;;4.00;2.05;;;;;;;;;;4976659;28;20035;-87